Time;durP1;ratioP1;P1;durP2;ratioP2;P2;SDS_P1;SDS_P2;PMS_P1;PMS_P2;Temp;Humidity;BMP_temperature;BMP_pressure;BME280_temperature;BME280_humidity;BME280_pressure;Samples;Min_cycle;Max_cycle;Signal;HPM_P1;HPM_P2
2022/11/13 00:00:11;;;;;;;16.77;8.50;;;;;;;;;;5010807;28;20294;-68
2022/11/13 00:02:56;;;;;;;15.67;9.30;;;;;;;;;;5010545;28;20270;-67
2022/11/13 00:05:41;;;;;;;19.70;9.90;;;;;;;;;;5010034;28;20532;-67
2022/11/13 00:08:45;;;;;;;20.87;10.03;;;;;;;;;;5011558;28;20191;-68
2022/11/13 00:11:31;;;;;;;20.37;12.07;;;;;;;;;;5029526;28;20226;-67
2022/11/13 00:14:16;;;;;;;20.77;10.43;;;;;;;;;;5030178;28;20201;-67
2022/11/13 00:17:01;;;;;;;17.57;8.70;;;;;;;;;;5029324;28;20661;-67
2022/11/13 00:19:46;;;;;;;17.30;8.47;;;;;;;;;;5029354;28;20206;-68
2022/11/13 00:22:32;;;;;;;17.33;8.17;;;;;;;;;;5029488;28;20202;-67
2022/11/13 00:25:17;;;;;;;18.83;8.40;;;;;;;;;;5028133;28;20193;-68
2022/11/13 00:28:02;;;;;;;16.43;8.20;;;;;;;;;;5029450;28;20198;-67
2022/11/13 00:30:47;;;;;;;16.57;10.60;;;;;;;;;;5029575;28;20257;-67
2022/11/13 00:33:32;;;;;;;15.90;8.80;;;;;;;;;;5015243;28;20559;-68
2022/11/13 00:36:38;;;;;;;15.23;8.43;;;;;;;;;;5028959;28;20666;-67
2022/11/13 00:39:23;;;;;;;16.80;8.97;;;;;;;;;;5029852;28;20214;-67
2022/11/13 00:42:08;;;;;;;20.17;10.90;;;;;;;;;;5029453;28;20215;-67
2022/11/13 00:44:53;;;;;;;19.70;11.17;;;;;;;;;;5029276;28;20280;-67
2022/11/13 00:47:38;;;;;;;18.00;9.03;;;;;;;;;;5029248;28;20281;-67
2022/11/13 00:50:23;;;;;;;14.70;8.20;;;;;;;;;;5029160;28;20217;-67
2022/11/13 00:53:08;;;;;;;13.80;8.27;;;;;;;;;;5028983;28;20222;-67
2022/11/13 00:56:01;;;;;;;12.47;8.80;;;;;;;;;;5029028;28;20199;-67
2022/11/13 00:58:46;;;;;;;18.03;9.13;;;;;;;;;;5027607;28;20222;-67
2022/11/13 01:01:32;;;;;;;16.63;9.43;;;;;;;;;;5029303;28;20801;-67
2022/11/13 01:04:17;;;;;;;13.07;8.20;;;;;;;;;;5032621;28;20305;-67
2022/11/13 01:07:03;;;;;;;14.60;8.40;;;;;;;;;;5032784;28;20187;-67
2022/11/13 01:09:49;;;;;;;13.33;8.00;;;;;;;;;;5032802;28;20206;-67
2022/11/13 01:12:34;;;;;;;19.20;8.67;;;;;;;;;;5033547;28;20329;-67
2022/11/13 01:15:19;;;;;;;18.03;8.03;;;;;;;;;;5033566;28;20602;-67
2022/11/13 01:18:04;;;;;;;16.20;7.77;;;;;;;;;;5033063;28;20199;-67
2022/11/13 01:20:50;;;;;;;15.43;8.73;;;;;;;;;;5026672;28;20211;-67
2022/11/13 01:23:35;;;;;;;13.97;8.07;;;;;;;;;;5012871;28;20194;-68
2022/11/13 01:26:21;;;;;;;14.93;8.07;;;;;;;;;;5013349;28;20199;-67
2022/11/13 01:29:06;;;;;;;14.07;8.20;;;;;;;;;;5013424;28;20303;-67
2022/11/13 01:31:51;;;;;;;18.80;8.60;;;;;;;;;;5012891;28;20227;-67
2022/11/13 01:34:37;;;;;;;15.77;9.53;;;;;;;;;;5025764;28;20721;-68
2022/11/13 01:37:21;;;;;;;13.33;7.97;;;;;;;;;;5021996;28;20199;-67
2022/11/13 01:40:07;;;;;;;17.63;8.77;;;;;;;;;;5012475;28;20198;-67
2022/11/13 01:42:52;;;;;;;16.13;8.87;;;;;;;;;;5012677;28;20211;-67
2022/11/13 01:46:00;;;;;;;17.40;8.63;;;;;;;;;;5012986;28;20223;-68
2022/11/13 01:48:47;;;;;;;19.00;11.33;;;;;;;;;;5025404;28;21079;-67
2022/11/13 01:51:35;;;;;;;23.30;12.60;;;;;;;;;;5012903;28;20222;-67
2022/11/13 01:54:21;;;;;;;18.83;10.03;;;;;;;;;;5027831;28;20217;-67
2022/11/13 01:57:06;;;;;;;21.27;12.43;;;;;;;;;;5045398;28;20690;-67
2022/11/13 01:59:55;;;;;;;17.37;10.60;;;;;;;;;;5032329;28;20246;-67
2022/11/13 02:02:41;;;;;;;13.93;8.97;;;;;;;;;;5044878;28;20203;-67
2022/11/13 02:05:26;;;;;;;14.73;8.97;;;;;;;;;;5032254;28;20198;-67
2022/11/13 02:08:11;;;;;;;14.17;7.87;;;;;;;;;;5045012;28;20199;-67
2022/11/13 02:10:56;;;;;;;14.53;8.23;;;;;;;;;;5031970;28;20713;-67
2022/11/13 02:13:41;;;;;;;18.17;10.13;;;;;;;;;;5044579;28;20202;-67
2022/11/13 02:16:26;;;;;;;14.67;9.30;;;;;;;;;;5039373;28;20203;-67
2022/11/13 02:19:13;;;;;;;20.07;10.00;;;;;;;;;;5012064;28;20564;-67
2022/11/13 02:22:02;;;;;;;16.73;9.07;;;;;;;;;;5012081;28;20358;-67
2022/11/13 02:24:47;;;;;;;14.67;8.47;;;;;;;;;;5024531;28;20223;-67
2022/11/13 02:27:37;;;;;;;14.27;8.23;;;;;;;;;;5024498;28;20211;-67
2022/11/13 02:30:29;;;;;;;17.50;8.77;;;;;;;;;;5012186;28;20206;-68
2022/11/13 02:33:28;;;;;;;12.20;8.37;;;;;;;;;;5013879;28;20278;-67
2022/11/13 02:36:13;;;;;;;14.90;9.00;;;;;;;;;;5031919;28;20229;-67
2022/11/13 02:39:00;;;;;;;13.87;7.87;;;;;;;;;;5030077;28;20288;-68
2022/11/13 02:41:45;;;;;;;13.53;7.97;;;;;;;;;;5010518;28;20892;-67
2022/11/13 02:44:30;;;;;;;16.90;7.53;;;;;;;;;;5011396;28;20675;-68
2022/11/13 02:47:15;;;;;;;15.90;9.03;;;;;;;;;;5011756;28;20261;-67
2022/11/13 02:50:00;;;;;;;21.97;11.13;;;;;;;;;;5011714;28;20207;-67
2022/11/13 02:52:45;;;;;;;18.20;9.40;;;;;;;;;;5011224;28;20235;-67
2022/11/13 02:55:31;;;;;;;14.23;8.73;;;;;;;;;;5011493;28;20278;-67
2022/11/13 02:58:16;;;;;;;16.13;8.60;;;;;;;;;;5011576;28;20207;-67
2022/11/13 03:01:02;;;;;;;13.13;7.53;;;;;;;;;;5011603;28;20210;-67
2022/11/13 03:03:47;;;;;;;15.63;7.97;;;;;;;;;;5011248;28;20203;-67
2022/11/13 03:06:42;;;;;;;15.23;8.03;;;;;;;;;;5011121;28;20203;-68
2022/11/13 03:09:27;;;;;;;13.50;6.70;;;;;;;;;;5010936;28;20203;-68
2022/11/13 03:12:12;;;;;;;14.10;8.57;;;;;;;;;;5011516;28;20226;-67
2022/11/13 03:14:58;;;;;;;15.73;7.63;;;;;;;;;;5011377;28;20203;-67
2022/11/13 03:17:43;;;;;;;14.60;7.30;;;;;;;;;;5010866;28;20262;-67
2022/11/13 03:20:29;;;;;;;10.80;7.30;;;;;;;;;;5010430;28;20690;-67
2022/11/13 03:23:14;;;;;;;14.13;7.30;;;;;;;;;;5012567;28;20793;-67
2022/11/13 03:26:06;;;;;;;13.70;8.13;;;;;;;;;;5029954;28;20330;-67
2022/11/13 03:28:51;;;;;;;14.57;6.90;;;;;;;;;;5030527;28;20353;-67
2022/11/13 03:31:36;;;;;;;14.17;7.13;;;;;;;;;;5030557;28;20590;-67
2022/11/13 03:34:21;;;;;;;14.57;7.47;;;;;;;;;;5019325;28;20202;-68
2022/11/13 03:37:06;;;;;;;14.20;6.93;;;;;;;;;;5010886;28;20676;-67
2022/11/13 03:39:51;;;;;;;14.50;7.27;;;;;;;;;;5010676;28;20226;-67
2022/11/13 03:42:36;;;;;;;13.83;7.07;;;;;;;;;;5010650;28;20194;-67
2022/11/13 03:45:21;;;;;;;15.70;7.47;;;;;;;;;;5010360;28;20282;-67
2022/11/13 03:48:07;;;;;;;13.10;6.80;;;;;;;;;;5010742;28;20206;-67
2022/11/13 03:50:53;;;;;;;13.57;6.87;;;;;;;;;;5010342;28;20207;-67
2022/11/13 03:53:38;;;;;;;13.30;6.47;;;;;;;;;;5010061;28;20235;-67
2022/11/13 03:56:24;;;;;;;14.33;7.70;;;;;;;;;;5010174;28;20206;-67
2022/11/13 03:59:09;;;;;;;16.20;7.77;;;;;;;;;;5029832;28;20198;-67
2022/11/13 04:01:55;;;;;;;10.80;6.17;;;;;;;;;;5014535;28;20215;-68
2022/11/13 04:04:40;;;;;;;11.80;6.37;;;;;;;;;;5008916;28;20206;-67
2022/11/13 04:07:25;;;;;;;13.97;7.23;;;;;;;;;;5010136;28;20283;-68
2022/11/13 04:10:10;;;;;;;12.93;6.73;;;;;;;;;;5009779;28;20249;-68
2022/11/13 04:12:56;;;;;;;11.30;6.50;;;;;;;;;;5010039;28;20227;-69
2022/11/13 04:15:41;;;;;;;18.07;7.93;;;;;;;;;;5025313;28;20206;-72
2022/11/13 04:18:28;;;;;;;11.70;6.67;;;;;;;;;;5017713;28;20210;-70
2022/11/13 04:21:14;;;;;;;16.50;6.83;;;;;;;;;;5025559;28;20198;-70
2022/11/13 04:24:00;;;;;;;14.10;7.07;;;;;;;;;;4998616;28;20214;-70
2022/11/13 04:26:45;;;;;;;11.03;6.23;;;;;;;;;;5006806;28;20203;-70
2022/11/13 04:29:48;;;;;;;10.80;6.70;;;;;;;;;;5010984;28;20253;-72
2022/11/13 04:32:34;;;;;;;10.40;7.20;;;;;;;;;;5008049;28;20245;-72
2022/11/13 04:35:19;;;;;;;13.50;6.83;;;;;;;;;;5006623;28;20202;-71
2022/11/13 04:38:04;;;;;;;15.83;7.30;;;;;;;;;;5007419;28;20203;-73
2022/11/13 04:42:47;;;;;;;14.07;7.63;;;;;;;;;;5006703;28;20678;-73
2022/11/13 04:43:56;;;;;;;16.67;7.70;;;;;;;;;;5018478;28;20273;-75
2022/11/13 04:46:40;;;;;;;13.53;7.43;;;;;;;;;;5026640;28;20293;-73
2022/11/13 04:49:26;;;;;;;11.20;7.13;;;;;;;;;;5018513;28;20206;-73
2022/11/13 04:52:11;;;;;;;11.70;6.50;;;;;;;;;;5026787;28;20218;-75
2022/11/13 04:54:57;;;;;;;11.83;6.83;;;;;;;;;;5006535;28;20365;-72
2022/11/13 04:58:00;;;;;;;13.33;7.07;;;;;;;;;;5011853;28;20923;-71
2022/11/13 05:00:45;;;;;;;15.33;8.60;;;;;;;;;;5006591;28;20203;-72
2022/11/13 05:03:31;;;;;;;15.83;7.57;;;;;;;;;;5007122;28;20219;-72
2022/11/13 05:06:16;;;;;;;14.43;8.17;;;;;;;;;;5006821;28;20330;-73
2022/11/13 05:09:02;;;;;;;13.20;7.77;;;;;;;;;;5017199;28;20334;-68
2022/11/13 05:11:48;;;;;;;15.87;7.47;;;;;;;;;;5023542;28;20226;-71
2022/11/13 05:14:37;;;;;;;11.97;6.67;;;;;;;;;;5006945;28;20910;-69
2022/11/13 05:17:22;;;;;;;12.07;7.33;;;;;;;;;;5017678;28;20217;-71
2022/11/13 05:20:08;;;;;;;14.27;7.13;;;;;;;;;;5022264;28;20202;-70
2022/11/13 05:22:53;;;;;;;11.50;6.57;;;;;;;;;;5022401;28;20206;-72
2022/11/13 05:25:38;;;;;;;12.43;7.37;;;;;;;;;;5006213;28;20331;-67
2022/11/13 05:28:24;;;;;;;12.03;6.70;;;;;;;;;;5009449;28;20231;-73
2022/11/13 05:31:27;;;;;;;12.80;6.90;;;;;;;;;;5025861;28;20273;-72
2022/11/13 05:34:13;;;;;;;13.37;7.77;;;;;;;;;;5020124;28;20222;-71
2022/11/13 05:36:58;;;;;;;12.23;7.67;;;;;;;;;;5025013;28;20921;-74
2022/11/13 05:39:43;;;;;;;15.47;7.60;;;;;;;;;;5012578;28;20206;-70
2022/11/13 05:42:29;;;;;;;10.57;6.93;;;;;;;;;;5012070;28;20292;-71
2022/11/13 05:45:14;;;;;;;10.47;7.10;;;;;;;;;;5006278;28;20208;-70
2022/11/13 05:47:59;;;;;;;13.23;7.53;;;;;;;;;;5010397;28;20261;-73
2022/11/13 05:50:45;;;;;;;14.13;7.67;;;;;;;;;;5008815;28;20203;-69
2022/11/13 05:53:32;;;;;;;14.97;7.47;;;;;;;;;;5015519;28;20254;-70
2022/11/13 05:56:25;;;;;;;11.70;6.17;;;;;;;;;;5025796;28;20257;-71
2022/11/13 05:59:10;;;;;;;13.57;6.80;;;;;;;;;;5016397;28;20309;-73
2022/11/13 06:01:54;;;;;;;13.33;6.47;;;;;;;;;;5027328;28;20277;-71
2022/11/13 06:04:40;;;;;;;10.50;6.27;;;;;;;;;;5009600;28;20949;-69
2022/11/13 06:07:25;;;;;;;9.13;6.10;;;;;;;;;;5007868;28;20223;-72
2022/11/13 06:10:12;;;;;;;9.83;5.70;;;;;;;;;;5039556;28;20205;-73
2022/11/13 06:12:57;;;;;;;10.03;5.90;;;;;;;;;;5020458;28;20219;-67
2022/11/13 06:15:42;;;;;;;11.40;6.10;;;;;;;;;;5012479;28;20199;-67
2022/11/13 06:18:27;;;;;;;9.97;5.90;;;;;;;;;;5012337;28;20207;-67
2022/11/13 06:21:14;;;;;;;13.40;6.33;;;;;;;;;;5011299;28;20199;-67
2022/11/13 06:24:00;;;;;;;13.20;5.67;;;;;;;;;;5012036;28;20239;-67
2022/11/13 06:26:45;;;;;;;10.43;5.97;;;;;;;;;;5012606;28;20211;-67
2022/11/13 06:29:30;;;;;;;10.17;6.07;;;;;;;;;;5012564;28;20198;-67
2022/11/13 06:32:14;;;;;;;10.30;5.87;;;;;;;;;;5012100;28;20584;-67
2022/11/13 06:35:00;;;;;;;11.90;6.30;;;;;;;;;;5012314;28;20249;-67
2022/11/13 06:37:46;;;;;;;10.83;6.73;;;;;;;;;;5031870;28;20206;-67
2022/11/13 06:40:31;;;;;;;9.47;5.90;;;;;;;;;;5031980;28;20210;-67
2022/11/13 06:43:16;;;;;;;8.77;5.30;;;;;;;;;;5031969;28;20202;-67
2022/11/13 06:46:02;;;;;;;12.20;6.57;;;;;;;;;;5031539;28;20203;-68
2022/11/13 06:48:50;;;;;;;19.63;7.47;;;;;;;;;;5031510;28;20206;-67
2022/11/13 06:51:35;;;;;;;12.80;6.53;;;;;;;;;;5031874;28;20215;-67
2022/11/13 06:54:20;;;;;;;11.57;5.80;;;;;;;;;;5025923;28;20689;-67
2022/11/13 06:57:06;;;;;;;11.83;6.27;;;;;;;;;;5010657;28;20203;-67
2022/11/13 06:59:51;;;;;;;10.30;6.57;;;;;;;;;;5012129;28;20265;-67
2022/11/13 07:02:36;;;;;;;11.00;5.40;;;;;;;;;;5011708;28;20191;-67
2022/11/13 07:05:21;;;;;;;10.43;5.43;;;;;;;;;;5011093;28;20330;-67
2022/11/13 07:08:06;;;;;;;8.87;5.63;;;;;;;;;;5011402;28;20200;-67
2022/11/13 07:10:53;;;;;;;9.50;6.33;;;;;;;;;;5024257;28;20195;-67
2022/11/13 07:13:38;;;;;;;9.27;5.83;;;;;;;;;;5030730;28;20586;-67
2022/11/13 07:16:23;;;;;;;11.03;5.67;;;;;;;;;;5030345;28;20238;-67
2022/11/13 07:19:15;;;;;;;9.87;6.03;;;;;;;;;;5031168;28;20199;-67
2022/11/13 07:22:00;;;;;;;11.20;6.63;;;;;;;;;;5030149;28;20215;-68
2022/11/13 07:24:45;;;;;;;13.13;6.83;;;;;;;;;;5030604;28;20342;-67
2022/11/13 07:27:30;;;;;;;12.60;6.10;;;;;;;;;;5031118;28;20242;-68
2022/11/13 07:30:16;;;;;;;11.73;7.77;;;;;;;;;;5029412;28;20325;-69
2022/11/13 07:33:02;;;;;;;8.93;5.63;;;;;;;;;;5030300;28;20709;-69
2022/11/13 07:35:47;;;;;;;9.83;5.70;;;;;;;;;;5024884;28;20301;-72
2022/11/13 07:38:33;;;;;;;10.90;6.20;;;;;;;;;;5018233;28;20285;-69
2022/11/13 07:41:18;;;;;;;23.40;11.77;;;;;;;;;;5026648;28;20198;-69
2022/11/13 07:44:03;;;;;;;18.70;9.67;;;;;;;;;;5015081;28;20782;-70
2022/11/13 07:46:53;;;;;;;17.90;8.87;;;;;;;;;;5007605;28;20330;-69
2022/11/13 07:49:38;;;;;;;16.00;8.57;;;;;;;;;;5032764;28;20210;-67
2022/11/13 07:52:24;;;;;;;15.00;8.00;;;;;;;;;;5007815;28;20280;-67
2022/11/13 07:55:09;;;;;;;10.93;7.43;;;;;;;;;;5009459;28;20219;-67
2022/11/13 07:57:55;;;;;;;15.40;8.10;;;;;;;;;;5009232;28;20199;-67
2022/11/13 08:00:41;;;;;;;14.60;8.47;;;;;;;;;;5026758;28;20234;-67
2022/11/13 08:03:26;;;;;;;14.27;8.47;;;;;;;;;;5030410;28;20202;-66
2022/11/13 08:06:12;;;;;;;18.13;10.77;;;;;;;;;;5030654;28;20725;-67
2022/11/13 08:08:56;;;;;;;18.37;11.50;;;;;;;;;;5019320;28;20207;-66
2022/11/13 08:11:41;;;;;;;22.10;13.07;;;;;;;;;;5009392;28;20334;-66
2022/11/13 08:14:27;;;;;;;28.07;17.60;;;;;;;;;;5010045;28;20327;-68
2022/11/13 08:17:30;;;;;;;19.13;12.13;;;;;;;;;;5009262;28;20202;-67
2022/11/13 08:20:15;;;;;;;20.83;12.53;;;;;;;;;;5021798;28;20206;-67
2022/11/13 08:23:01;;;;;;;21.77;13.60;;;;;;;;;;5028181;28;20218;-67
2022/11/13 08:25:46;;;;;;;21.60;14.40;;;;;;;;;;5011986;28;20202;-67
2022/11/13 08:28:32;;;;;;;21.13;14.23;;;;;;;;;;5011369;28;20207;-67
2022/11/13 08:31:17;;;;;;;15.53;9.40;;;;;;;;;;5011245;28;20794;-69
2022/11/13 08:34:02;;;;;;;14.27;8.60;;;;;;;;;;5019590;28;20206;-67
2022/11/13 08:36:47;;;;;;;16.83;9.30;;;;;;;;;;5025879;28;20195;-67
2022/11/13 08:39:36;;;;;;;18.90;10.57;;;;;;;;;;5011579;28;20214;-67
2022/11/13 08:42:22;;;;;;;15.53;10.40;;;;;;;;;;5009434;28;20207;-72
2022/11/13 08:45:08;;;;;;;16.20;10.23;;;;;;;;;;5022567;28;20286;-72
2022/11/13 08:47:53;;;;;;;15.83;8.73;;;;;;;;;;5010645;28;20202;-72
2022/11/13 08:50:42;;;;;;;15.20;9.03;;;;;;;;;;5010250;28;20203;-72
2022/11/13 08:53:28;;;;;;;13.43;8.43;;;;;;;;;;5023490;28;20358;-72
2022/11/13 08:56:13;;;;;;;11.83;7.93;;;;;;;;;;5011939;28;20211;-72
2022/11/13 08:58:58;;;;;;;12.93;7.43;;;;;;;;;;5010732;28;20210;-71
2022/11/13 09:01:43;;;;;;;12.67;7.60;;;;;;;;;;5022662;28;20202;-69
2022/11/13 09:04:28;;;;;;;13.20;7.40;;;;;;;;;;5015219;28;20267;-68
2022/11/13 09:07:14;;;;;;;14.07;7.23;;;;;;;;;;5029487;28;20209;-70
2022/11/13 09:09:59;;;;;;;14.53;6.90;;;;;;;;;;5029243;28;20205;-70
2022/11/13 09:12:44;;;;;;;11.90;6.87;;;;;;;;;;5029249;28;20584;-70
2022/11/13 09:15:30;;;;;;;16.10;6.93;;;;;;;;;;5028571;28;20206;-70
2022/11/13 09:18:15;;;;;;;8.83;5.83;;;;;;;;;;5028903;28;20289;-70
2022/11/13 09:21:01;;;;;;;12.80;6.50;;;;;;;;;;5029158;28;20199;-70
2022/11/13 09:23:46;;;;;;;10.93;6.50;;;;;;;;;;5028518;28;20206;-70
2022/11/13 09:26:33;;;;;;;16.27;7.87;;;;;;;;;;5013318;28;20215;-70
2022/11/13 09:29:18;;;;;;;17.03;9.43;;;;;;;;;;5013505;28;20289;-70
2022/11/13 09:32:03;;;;;;;18.30;10.43;;;;;;;;;;5013171;28;20200;-70
2022/11/13 09:34:51;;;;;;;19.20;10.23;;;;;;;;;;5012831;28;20198;-70
2022/11/13 09:37:36;;;;;;;19.87;10.03;;;;;;;;;;5013108;28;20199;-70
2022/11/13 09:40:24;;;;;;;17.53;9.87;;;;;;;;;;5013173;28;20198;-70
2022/11/13 09:43:13;;;;;;;17.70;9.30;;;;;;;;;;5013159;28;20208;-70
2022/11/13 09:46:00;;;;;;;13.30;7.70;;;;;;;;;;5025662;28;20786;-70
2022/11/13 09:49:11;;;;;;;14.87;7.50;;;;;;;;;;5026099;28;20214;-70
2022/11/13 09:51:58;;;;;;;11.37;6.97;;;;;;;;;;5007812;28;20222;-70
2022/11/13 09:54:50;;;;;;;12.57;6.50;;;;;;;;;;5024687;28;20354;-70
2022/11/13 09:57:49;;;;;;;9.13;5.10;;;;;;;;;;5013503;28;20203;-70
2022/11/13 10:00:34;;;;;;;9.93;5.50;;;;;;;;;;5026009;28;20219;-70
2022/11/13 10:03:35;;;;;;;8.77;3.90;;;;;;;;;;5026172;28;20206;-70
2022/11/13 10:06:48;;;;;;;8.63;3.23;;;;;;;;;;5034385;28;20559;-71
2022/11/13 10:09:36;;;;;;;6.60;2.70;;;;;;;;;;5013136;28;20215;-70
2022/11/13 10:12:22;;;;;;;6.30;3.40;;;;;;;;;;5011883;28;20222;-70
2022/11/13 10:15:07;;;;;;;16.70;9.53;;;;;;;;;;5012484;28;20262;-70
2022/11/13 10:17:57;;;;;;;11.97;7.27;;;;;;;;;;5011317;28;20686;-70
2022/11/13 10:20:47;;;;;;;8.90;5.27;;;;;;;;;;5011522;28;20656;-70
2022/11/13 10:23:33;;;;;;;7.67;4.20;;;;;;;;;;5012215;28;20235;-69
2022/11/13 10:26:19;;;;;;;4.97;2.60;;;;;;;;;;4997261;28;20211;-69
2022/11/13 10:29:07;;;;;;;6.67;2.60;;;;;;;;;;5012318;28;20191;-69
2022/11/13 10:32:14;;;;;;;6.13;2.77;;;;;;;;;;5022870;28;20191;-69
2022/11/13 10:35:07;;;;;;;4.57;2.33;;;;;;;;;;5040662;28;20209;-69
2022/11/13 10:37:55;;;;;;;5.93;2.70;;;;;;;;;;5030966;28;20547;-69
2022/11/13 10:40:41;;;;;;;7.47;2.70;;;;;;;;;;5031585;28;20245;-70
2022/11/13 10:43:26;;;;;;;3.50;2.60;;;;;;;;;;5019295;28;20211;-69
2022/11/13 10:46:15;;;;;;;3.77;2.33;;;;;;;;;;5011994;28;20183;-69
2022/11/13 10:49:31;;;;;;;5.57;2.60;;;;;;;;;;5011095;28;20199;-69
2022/11/13 10:52:18;;;;;;;6.10;3.13;;;;;;;;;;5010102;28;20324;-69
2022/11/13 10:55:27;;;;;;;5.80;2.33;;;;;;;;;;5011808;28;20254;-69
2022/11/13 10:58:16;;;;;;;5.53;2.70;;;;;;;;;;5013076;28;20207;-69
2022/11/13 11:01:12;;;;;;;6.60;2.00;;;;;;;;;;5027317;28;20207;-69
2022/11/13 11:03:57;;;;;;;6.27;2.07;;;;;;;;;;5031715;28;20563;-69
2022/11/13 11:07:10;;;;;;;6.70;1.80;;;;;;;;;;5030267;28;20290;-69
2022/11/13 11:10:25;;;;;;;5.67;1.97;;;;;;;;;;5030569;28;20202;-69
2022/11/13 11:13:11;;;;;;;6.07;2.90;;;;;;;;;;5031281;28;20304;-70
2022/11/13 11:15:57;;;;;;;5.60;2.17;;;;;;;;;;5031259;28;20214;-69
2022/11/13 11:18:59;;;;;;;6.23;2.47;;;;;;;;;;5029996;28;20195;-69
2022/11/13 11:21:44;;;;;;;6.10;2.27;;;;;;;;;;5030144;28;20574;-69
2022/11/13 11:24:34;;;;;;;5.33;2.50;;;;;;;;;;5030126;28;20199;-70
2022/11/13 11:27:21;;;;;;;7.73;2.40;;;;;;;;;;5030705;28;20206;-69
2022/11/13 11:30:30;;;;;;;6.53;2.20;;;;;;;;;;5030635;28;20186;-69
2022/11/13 11:33:18;;;;;;;5.83;2.10;;;;;;;;;;5014182;28;20296;-69
2022/11/13 11:36:03;;;;;;;4.80;2.20;;;;;;;;;;5009580;28;20199;-69
2022/11/13 11:39:14;;;;;;;8.83;2.60;;;;;;;;;;5027384;28;20206;-69
2022/11/13 11:42:12;;;;;;;5.33;2.27;;;;;;;;;;5029422;28;20288;-69
2022/11/13 11:45:16;;;;;;;5.87;2.20;;;;;;;;;;5030948;28;20219;-69
2022/11/13 11:48:03;;;;;;;5.27;2.10;;;;;;;;;;5029700;28;20205;-69
2022/11/13 11:50:51;;;;;;;8.57;2.90;;;;;;;;;;5043126;28;20207;-70
2022/11/13 11:53:44;;;;;;;7.60;2.37;;;;;;;;;;5030312;28;20320;-69
2022/11/13 11:56:39;;;;;;;5.43;2.33;;;;;;;;;;5043058;28;20657;-70
2022/11/13 11:59:38;;;;;;;6.47;2.30;;;;;;;;;;5030592;28;20681;-69
2022/11/13 12:02:39;;;;;;;5.30;2.13;;;;;;;;;;5029401;28;20563;-69
2022/11/13 12:05:29;;;;;;;6.63;2.70;;;;;;;;;;5030066;28;20567;-70
2022/11/13 12:08:41;;;;;;;4.93;2.40;;;;;;;;;;5030432;28;20296;-69
2022/11/13 12:11:27;;;;;;;5.07;2.63;;;;;;;;;;5030150;28;20748;-70
2022/11/13 12:14:13;;;;;;;5.37;2.60;;;;;;;;;;5028853;28;20210;-69
2022/11/13 12:17:04;;;;;;;6.60;2.80;;;;;;;;;;5010153;28;20210;-69
2022/11/13 12:20:08;;;;;;;5.17;2.40;;;;;;;;;;5010200;28;20207;-70
2022/11/13 12:23:01;;;;;;;8.23;5.00;;;;;;;;;;5010475;28;20199;-69
2022/11/13 12:25:50;;;;;;;40.17;25.73;;;;;;;;;;5010296;28;20203;-69
2022/11/13 12:28:47;;;;;;;19.47;12.00;;;;;;;;;;5010431;28;20292;-69
2022/11/13 12:31:39;;;;;;;31.60;18.00;;;;;;;;;;5022420;28;20211;-69
2022/11/13 12:34:28;;;;;;;24.70;13.60;;;;;;;;;;5022851;28;20227;-69
2022/11/13 12:37:19;;;;;;;12.40;7.47;;;;;;;;;;5009055;28;20686;-69
2022/11/13 12:40:05;;;;;;;22.63;12.60;;;;;;;;;;4995363;28;20262;-69
2022/11/13 12:43:06;;;;;;;22.70;14.53;;;;;;;;;;5009142;28;20214;-69
2022/11/13 12:45:55;;;;;;;13.67;7.23;;;;;;;;;;5008813;28;20743;-69
2022/11/13 12:48:41;;;;;;;9.70;5.63;;;;;;;;;;5008296;28;20785;-69
2022/11/13 12:51:35;;;;;;;10.23;4.43;;;;;;;;;;5023088;28;20280;-70
2022/11/13 12:54:28;;;;;;;6.63;4.40;;;;;;;;;;5022199;28;20730;-69
2022/11/13 12:57:16;;;;;;;7.27;3.43;;;;;;;;;;5010422;28;20210;-69
2022/11/13 13:00:22;;;;;;;8.33;3.47;;;;;;;;;;5013114;28;20199;-69
2022/11/13 13:03:07;;;;;;;8.10;3.53;;;;;;;;;;5027105;28;20222;-69
2022/11/13 13:06:05;;;;;;;6.07;3.33;;;;;;;;;;5013667;28;20346;-69
2022/11/13 13:09:11;;;;;;;7.73;4.70;;;;;;;;;;5013751;28;20339;-69
2022/11/13 13:12:35;;;;;;;6.93;3.73;;;;;;;;;;5031351;28;20558;-69
2022/11/13 13:15:30;;;;;;;6.37;3.40;;;;;;;;;;4991199;28;20318;-69
2022/11/13 13:18:15;;;;;;;8.30;3.80;;;;;;;;;;4991753;28;20203;-69
2022/11/13 13:21:13;;;;;;;23.03;14.83;;;;;;;;;;5011750;28;20219;-68
2022/11/13 13:24:05;;;;;;;11.43;8.00;;;;;;;;;;5013357;28;20317;-68
2022/11/13 13:26:50;;;;;;;12.27;6.83;;;;;;;;;;5012659;28;20215;-69
2022/11/13 13:29:36;;;;;;;10.40;5.77;;;;;;;;;;5013724;28;20273;-69
2022/11/13 13:32:22;;;;;;;10.23;4.87;;;;;;;;;;5024545;28;20218;-68
2022/11/13 13:35:12;;;;;;;6.90;3.80;;;;;;;;;;5014586;28;20341;-68
2022/11/13 13:38:06;;;;;;;6.73;3.90;;;;;;;;;;5012518;28;20289;-69
2022/11/13 13:40:51;;;;;;;8.13;4.33;;;;;;;;;;5012188;28;20318;-68
2022/11/13 13:43:55;;;;;;;7.80;4.30;;;;;;;;;;5013362;28;20226;-68
2022/11/13 13:46:40;;;;;;;8.90;4.00;;;;;;;;;;5013038;28;20898;-68
2022/11/13 13:49:25;;;;;;;6.77;4.40;;;;;;;;;;5012814;28;20390;-68
2022/11/13 13:52:12;;;;;;;9.27;3.93;;;;;;;;;;5011957;28;20214;-67
2022/11/13 13:54:58;;;;;;;9.27;3.83;;;;;;;;;;5025628;28;20235;-68
2022/11/13 13:57:43;;;;;;;7.80;4.00;;;;;;;;;;5026041;28;20254;-68
2022/11/13 14:00:29;;;;;;;7.50;3.90;;;;;;;;;;5026285;28;20199;-68
2022/11/13 14:03:19;;;;;;;7.87;4.10;;;;;;;;;;5025613;28;20323;-68
2022/11/13 14:06:17;;;;;;;7.90;4.10;;;;;;;;;;5013292;28;20679;-68
2022/11/13 14:09:07;;;;;;;8.27;3.90;;;;;;;;;;5025632;28;20785;-68
2022/11/13 14:12:02;;;;;;;5.90;3.80;;;;;;;;;;5011601;28;20262;-68
2022/11/13 14:14:53;;;;;;;6.73;3.87;;;;;;;;;;5024843;28;20717;-68
2022/11/13 14:17:39;;;;;;;7.07;3.63;;;;;;;;;;5012450;28;20339;-68
2022/11/13 14:20:24;;;;;;;6.53;3.63;;;;;;;;;;5012495;28;20207;-69
2022/11/13 14:23:11;;;;;;;7.87;4.10;;;;;;;;;;5024904;28;20203;-69
2022/11/13 14:25:56;;;;;;;8.37;5.27;;;;;;;;;;5024381;28;20207;-69
2022/11/13 14:28:46;;;;;;;7.03;4.50;;;;;;;;;;5025358;28;20655;-69
2022/11/13 14:31:37;;;;;;;8.00;4.77;;;;;;;;;;5012504;28;20392;-69
2022/11/13 14:34:22;;;;;;;5.90;4.17;;;;;;;;;;5030787;28;20594;-69
2022/11/13 14:37:17;;;;;;;8.00;4.23;;;;;;;;;;5031002;28;20733;-69
2022/11/13 14:40:04;;;;;;;7.87;4.47;;;;;;;;;;5011345;28;20210;-69
2022/11/13 14:42:51;;;;;;;7.47;5.10;;;;;;;;;;5020087;28;20219;-69
2022/11/13 14:45:55;;;;;;;9.40;4.93;;;;;;;;;;5025731;28;20769;-69
2022/11/13 14:48:40;;;;;;;7.43;4.73;;;;;;;;;;5012504;28;20694;-69
2022/11/13 14:51:32;;;;;;;9.73;5.23;;;;;;;;;;5012257;28;20207;-69
2022/11/13 14:54:30;;;;;;;8.77;5.47;;;;;;;;;;5012743;28;20238;-69
2022/11/13 14:57:33;;;;;;;10.50;4.60;;;;;;;;;;5012780;28;20195;-69
2022/11/13 15:00:19;;;;;;;6.17;4.50;;;;;;;;;;5014215;28;20195;-69
2022/11/13 15:03:06;;;;;;;9.53;4.90;;;;;;;;;;5026159;28;20195;-69
2022/11/13 15:05:51;;;;;;;9.83;5.00;;;;;;;;;;5016100;28;20233;-69
2022/11/13 15:08:54;;;;;;;9.03;5.10;;;;;;;;;;5020862;28;20187;-69
2022/11/13 15:11:40;;;;;;;8.33;5.30;;;;;;;;;;5019372;28;20685;-69
2022/11/13 15:14:26;;;;;;;7.83;3.67;;;;;;;;;;5028602;28;20226;-68
2022/11/13 15:17:15;;;;;;;7.77;3.13;;;;;;;;;;5024827;28;20563;-69
2022/11/13 15:20:20;;;;;;;7.10;3.00;;;;;;;;;;5018555;28;20590;-68
2022/11/13 15:23:07;;;;;;;9.90;5.40;;;;;;;;;;5031143;28;20273;-68
2022/11/13 15:25:53;;;;;;;9.10;4.47;;;;;;;;;;5027779;28;20217;-69
2022/11/13 15:28:38;;;;;;;7.90;4.30;;;;;;;;;;5020772;28;20261;-68
2022/11/13 15:31:42;;;;;;;20.20;10.60;;;;;;;;;;5026104;28;20716;-69
2022/11/13 15:34:27;;;;;;;11.47;7.10;;;;;;;;;;5024951;28;20226;-68
2022/11/13 15:37:15;;;;;;;7.43;3.67;;;;;;;;;;5026960;28;20566;-69
2022/11/13 15:40:00;;;;;;;6.53;3.70;;;;;;;;;;5017474;28;20869;-69
2022/11/13 15:42:46;;;;;;;8.93;3.80;;;;;;;;;;5035884;28;20198;-68
2022/11/13 15:45:31;;;;;;;6.97;3.70;;;;;;;;;;5023855;28;20226;-70
2022/11/13 15:48:19;;;;;;;8.20;4.70;;;;;;;;;;5014837;28;20985;-69
2022/11/13 15:51:17;;;;;;;7.17;4.87;;;;;;;;;;5031891;28;20250;-70
2022/11/13 15:54:27;;;;;;;7.97;4.37;;;;;;;;;;5006986;28;20241;-70
2022/11/13 15:57:19;;;;;;;5.63;2.67;;;;;;;;;;5021722;28;20218;-70
2022/11/13 16:00:16;;;;;;;4.53;2.63;;;;;;;;;;5030455;28;20206;-68
2022/11/13 16:03:03;;;;;;;4.00;2.47;;;;;;;;;;5015414;28;20217;-71
2022/11/13 16:05:49;;;;;;;7.10;3.40;;;;;;;;;;5010461;28;20242;-70
2022/11/13 16:08:34;;;;;;;4.27;2.80;;;;;;;;;;5023112;28;20350;-71
2022/11/13 16:11:19;;;;;;;5.17;3.40;;;;;;;;;;5006255;28;20313;-71
2022/11/13 16:14:05;;;;;;;6.20;2.80;;;;;;;;;;5007161;28;21131;-70
2022/11/13 16:17:19;;;;;;;5.83;4.17;;;;;;;;;;5026000;28;20189;-69
2022/11/13 16:20:06;;;;;;;5.00;3.80;;;;;;;;;;5029067;28;20206;-69
2022/11/13 16:22:51;;;;;;;8.13;5.07;;;;;;;;;;5019973;28;20214;-72
2022/11/13 16:25:37;;;;;;;7.10;4.43;;;;;;;;;;5015655;28;20338;-74
2022/11/13 16:28:26;;;;;;;16.17;7.23;;;;;;;;;;5017812;28;20982;-70
2022/11/13 16:31:15;;;;;;;13.13;6.40;;;;;;;;;;5015381;28;20203;-70
2022/11/13 16:34:00;;;;;;;10.00;5.30;;;;;;;;;;5024860;28;20910;-72
2022/11/13 16:36:45;;;;;;;9.07;5.07;;;;;;;;;;5017856;28;20263;-67
2022/11/13 16:39:31;;;;;;;8.43;5.30;;;;;;;;;;5021464;28;20198;-69